sensor_id;sensor_type;location;lat;lon;timestamp;pressure;altitude;pressure_sealevel;temperature;humidity
43147;BME280;28752;48.266;7.402;2023-03-04T00:02:08;100024.22;;;2.04;78.74
43147;BME280;28752;48.266;7.402;2023-03-04T00:04:33;100021.47;;;2.07;78.46
43147;BME280;28752;48.266;7.402;2023-03-04T00:06:58;100035.66;;;2.02;78.74
43147;BME280;28752;48.266;7.402;2023-03-04T00:09:24;100030.00;;;1.93;79.21
43147;BME280;28752;48.266;7.402;2023-03-04T00:11:49;100026.63;;;1.91;79.14
43147;BME280;28752;48.266;7.402;2023-03-04T00:14:14;100032.53;;;1.95;78.55
43147;BME280;28752;48.266;7.402;2023-03-04T00:16:40;100039.91;;;2.04;78.40
43147;BME280;28752;48.266;7.402;2023-03-04T00:19:05;100029.50;;;1.85;78.19
43147;BME280;28752;48.266;7.402;2023-03-04T00:21:31;100041.41;;;1.91;78.47
43147;BME280;28752;48.266;7.402;2023-03-04T00:23:56;100028.97;;;1.61;78.64
43147;BME280;28752;48.266;7.402;2023-03-04T00:26:21;100044.72;;;1.77;78.28
43147;BME280;28752;48.266;7.402;2023-03-04T00:28:47;100039.25;;;1.64;78.11
43147;BME280;28752;48.266;7.402;2023-03-04T00:31:12;100041.34;;;1.75;77.21
43147;BME280;28752;48.266;7.402;2023-03-04T00:33:38;100040.19;;;1.81;75.48
43147;BME280;28752;48.266;7.402;2023-03-04T00:36:04;100041.41;;;1.91;74.86
43147;BME280;28752;48.266;7.402;2023-03-04T00:38:31;100037.06;;;1.91;73.89
43147;BME280;28752;48.266;7.402;2023-03-04T00:40:57;100045.66;;;2.11;72.32
43147;BME280;28752;48.266;7.402;2023-03-04T00:43:22;100038.97;;;2.23;70.50
43147;BME280;28752;48.266;7.402;2023-03-04T00:45:48;100052.72;;;2.44;69.20
43147;BME280;28752;48.266;7.402;2023-03-04T00:48:14;100044.56;;;2.50;68.67
43147;BME280;28752;48.266;7.402;2023-03-04T00:50:41;100023.75;;;2.31;69.38
43147;BME280;28752;48.266;7.402;2023-03-04T00:53:06;100028.81;;;2.34;69.74
43147;BME280;28752;48.266;7.402;2023-03-04T00:55:32;100050.84;;;2.46;70.25
43147;BME280;28752;48.266;7.402;2023-03-04T00:57:57;100037.59;;;2.33;71.48
43147;BME280;28752;48.266;7.402;2023-03-04T01:00:22;100036.91;;;2.29;71.17
43147;BME280;28752;48.266;7.402;2023-03-04T01:02:48;100020.63;;;2.07;71.41
43147;BME280;28752;48.266;7.402;2023-03-04T01:05:14;100039.38;;;2.33;70.85
43147;BME280;28752;48.266;7.402;2023-03-04T01:07:39;100043.63;;;2.51;69.26
43147;BME280;28752;48.266;7.402;2023-03-04T01:10:06;100049.84;;;2.66;68.62
43147;BME280;28752;48.266;7.402;2023-03-04T01:12:32;100040.53;;;2.60;69.39
43147;BME280;28752;48.266;7.402;2023-03-04T01:14:58;100042.91;;;2.65;69.17
43147;BME280;28752;48.266;7.402;2023-03-04T01:17:23;100030.81;;;2.80;68.46
43147;BME280;28752;48.266;7.402;2023-03-04T01:19:49;100020.75;;;2.88;67.74
43147;BME280;28752;48.266;7.402;2023-03-04T01:22:14;99994.06;;;2.65;67.48
43147;BME280;28752;48.266;7.402;2023-03-04T01:24:40;100034.13;;;2.99;68.27
43147;BME280;28752;48.266;7.402;2023-03-04T01:27:06;100033.00;;;2.88;68.83
43147;BME280;28752;48.266;7.402;2023-03-04T01:29:31;100025.00;;;2.91;68.71
43147;BME280;28752;48.266;7.402;2023-03-04T01:31:56;100035.22;;;2.95;69.50
43147;BME280;28752;48.266;7.402;2023-03-04T01:34:22;100032.22;;;2.70;70.37
43147;BME280;28752;48.266;7.402;2023-03-04T01:36:47;100038.19;;;2.72;71.13
43147;BME280;28752;48.266;7.402;2023-03-04T01:39:13;100015.31;;;2.59;71.64
43147;BME280;28752;48.266;7.402;2023-03-04T01:41:38;100016.94;;;2.44;72.49
43147;BME280;28752;48.266;7.402;2023-03-04T01:44:04;100046.34;;;2.32;73.43
43147;BME280;28752;48.266;7.402;2023-03-04T01:46:30;100023.69;;;2.15;73.75
43147;BME280;28752;48.266;7.402;2023-03-04T01:48:56;100029.44;;;2.04;74.70
43147;BME280;28752;48.266;7.402;2023-03-04T01:51:22;100029.38;;;1.88;75.63
43147;BME280;28752;48.266;7.402;2023-03-04T01:53:49;100030.75;;;1.78;76.21
43147;BME280;28752;48.266;7.402;2023-03-04T01:56:25;100029.03;;;1.77;76.86
43147;BME280;28752;48.266;7.402;2023-03-04T01:59:09;100014.81;;;1.65;76.91
43147;BME280;28752;48.266;7.402;2023-03-04T02:01:36;100034.59;;;1.52;77.00
43147;BME280;28752;48.266;7.402;2023-03-04T02:04:02;100002.03;;;1.05;77.95
43147;BME280;28752;48.266;7.402;2023-03-04T02:06:28;100028.19;;;1.03;78.96
43147;BME280;28752;48.266;7.402;2023-03-04T02:08:54;100039.16;;;1.10;79.07
43147;BME280;28752;48.266;7.402;2023-03-04T02:11:19;100022.38;;;0.97;79.65
43147;BME280;28752;48.266;7.402;2023-03-04T02:13:45;100034.22;;;0.85;79.97
43147;BME280;28752;48.266;7.402;2023-03-04T02:16:10;100020.34;;;0.65;80.76
43147;BME280;28752;48.266;7.402;2023-03-04T02:18:35;100029.53;;;0.53;81.30
43147;BME280;28752;48.266;7.402;2023-03-04T02:21:12;100029.00;;;0.66;81.25
43147;BME280;28752;48.266;7.402;2023-03-04T02:26:42;100007.22;;;0.67;81.94
43147;BME280;28752;48.266;7.402;2023-03-04T02:29:09;100019.22;;;0.90;81.83
43147;BME280;28752;48.266;7.402;2023-03-04T02:31:44;100029.22;;;0.99;81.46
43147;BME280;28752;48.266;7.402;2023-03-04T02:34:20;100015.69;;;0.91;81.61
43147;BME280;28752;48.266;7.402;2023-03-04T02:36:46;100023.72;;;1.05;81.29
43147;BME280;28752;48.266;7.402;2023-03-04T02:41:47;100026.31;;;0.86;81.36
43147;BME280;28752;48.266;7.402;2023-03-04T02:44:17;100026.59;;;0.80;81.47
43147;BME280;28752;48.266;7.402;2023-03-04T02:46:44;100030.13;;;0.79;82.31
43147;BME280;28752;48.266;7.402;2023-03-04T02:49:09;100018.34;;;0.70;81.93
43147;BME280;28752;48.266;7.402;2023-03-04T02:51:35;100003.00;;;0.64;82.54
43147;BME280;28752;48.266;7.402;2023-03-04T02:54:00;100031.59;;;0.85;82.76
43147;BME280;28752;48.266;7.402;2023-03-04T02:56:25;100033.75;;;0.96;82.87
43147;BME280;28752;48.266;7.402;2023-03-04T02:58:51;100011.47;;;0.88;82.67
43147;BME280;28752;48.266;7.402;2023-03-04T03:01:16;100027.81;;;0.92;82.17
43147;BME280;28752;48.266;7.402;2023-03-04T03:03:41;100021.03;;;0.88;82.14
43147;BME280;28752;48.266;7.402;2023-03-04T03:06:07;100008.22;;;0.83;81.91
43147;BME280;28752;48.266;7.402;2023-03-04T03:08:32;100012.31;;;0.70;82.39
43147;BME280;28752;48.266;7.402;2023-03-04T03:10:57;100017.88;;;0.62;82.43
43147;BME280;28752;48.266;7.402;2023-03-04T03:13:23;100027.25;;;0.46;82.79
43147;BME280;28752;48.266;7.402;2023-03-04T03:15:49;100008.63;;;0.34;83.37
43147;BME280;28752;48.266;7.402;2023-03-04T03:18:14;100015.22;;;0.43;83.44
43147;BME280;28752;48.266;7.402;2023-03-04T03:20:40;100020.69;;;0.37;84.04
43147;BME280;28752;48.266;7.402;2023-03-04T03:23:06;100028.56;;;0.35;84.20
43147;BME280;28752;48.266;7.402;2023-03-04T03:25:31;100028.09;;;0.26;84.62
43147;BME280;28752;48.266;7.402;2023-03-04T03:27:57;100011.25;;;0.14;84.81
43147;BME280;28752;48.266;7.402;2023-03-04T03:30:22;100016.25;;;-0.02;84.88
43147;BME280;28752;48.266;7.402;2023-03-04T03:32:47;100016.50;;;-0.08;85.73
43147;BME280;28752;48.266;7.402;2023-03-04T03:35:13;100015.63;;;-0.07;86.00
43147;BME280;28752;48.266;7.402;2023-03-04T03:37:38;100021.81;;;0.11;85.86
43147;BME280;28752;48.266;7.402;2023-03-04T03:40:04;100019.88;;;-0.06;86.30
43147;BME280;28752;48.266;7.402;2023-03-04T03:42:29;100028.81;;;0.09;86.00
43147;BME280;28752;48.266;7.402;2023-03-04T03:44:55;100031.16;;;0.15;85.31
43147;BME280;28752;48.266;7.402;2023-03-04T03:47:20;100026.59;;;-0.01;85.83
43147;BME280;28752;48.266;7.402;2023-03-04T03:49:46;100017.91;;;0.01;86.37
43147;BME280;28752;48.266;7.402;2023-03-04T03:52:11;100039.19;;;0.10;86.13
43147;BME280;28752;48.266;7.402;2023-03-04T03:54:37;100013.00;;;-0.07;86.12
43147;BME280;28752;48.266;7.402;2023-03-04T03:57:02;100036.38;;;-0.06;85.73
43147;BME280;28752;48.266;7.402;2023-03-04T03:59:27;100009.78;;;-0.34;86.00
43147;BME280;28752;48.266;7.402;2023-03-04T04:01:53;100032.91;;;-0.27;86.37
43147;BME280;28752;48.266;7.402;2023-03-04T04:04:18;100034.34;;;-0.20;86.71
43147;BME280;28752;48.266;7.402;2023-03-04T04:06:44;100038.09;;;-0.27;86.56
43147;BME280;28752;48.266;7.402;2023-03-04T04:09:09;99998.03;;;-0.67;87.01
43147;BME280;28752;48.266;7.402;2023-03-04T04:11:34;100038.09;;;-0.49;87.15
43147;BME280;28752;48.266;7.402;2023-03-04T04:14:00;100007.16;;;-0.77;87.00
43147;BME280;28752;48.266;7.402;2023-03-04T04:16:25;100037.75;;;-0.62;87.21
43147;BME280;28752;48.266;7.402;2023-03-04T04:18:51;99996.13;;;-0.84;86.95
43147;BME280;28752;48.266;7.402;2023-03-04T04:21:16;100008.94;;;-0.79;86.59
43147;BME280;28752;48.266;7.402;2023-03-04T04:23:41;100018.91;;;-0.91;87.18
43147;BME280;28752;48.266;7.402;2023-03-04T04:26:07;100013.16;;;-0.99;88.05
43147;BME280;28752;48.266;7.402;2023-03-04T04:28:32;100001.63;;;-0.92;87.85
43147;BME280;28752;48.266;7.402;2023-03-04T04:30:57;100030.78;;;-0.83;88.30
43147;BME280;28752;48.266;7.402;2023-03-04T04:33:23;100024.91;;;-0.88;88.34
43147;BME280;28752;48.266;7.402;2023-03-04T04:35:48;100016.56;;;-0.97;88.48
43147;BME280;28752;48.266;7.402;2023-03-04T04:38:14;100025.06;;;-0.93;88.55
43147;BME280;28752;48.266;7.402;2023-03-04T04:40:39;100030.56;;;-1.01;88.77
43147;BME280;28752;48.266;7.402;2023-03-04T04:43:04;100034.81;;;-0.98;89.17
43147;BME280;28752;48.266;7.402;2023-03-04T04:45:31;99932.19;;;-1.57;88.79
43147;BME280;28752;48.266;7.402;2023-03-04T04:47:56;100015.66;;;-1.19;89.12
43147;BME280;28752;48.266;7.402;2023-03-04T04:50:22;100043.78;;;-1.07;89.23
43147;BME280;28752;48.266;7.402;2023-03-04T04:52:48;100033.78;;;-1.18;89.35
43147;BME280;28752;48.266;7.402;2023-03-04T04:55:13;100027.34;;;-1.31;89.46
43147;BME280;28752;48.266;7.402;2023-03-04T04:57:38;100032.47;;;-1.30;89.50
43147;BME280;28752;48.266;7.402;2023-03-04T05:00:05;100047.06;;;-1.26;89.35
43147;BME280;28752;48.266;7.402;2023-03-04T05:02:31;100045.38;;;-1.27;89.81
43147;BME280;28752;48.266;7.402;2023-03-04T05:05:01;100039.34;;;-1.27;89.25
43147;BME280;28752;48.266;7.402;2023-03-04T05:07:26;100029.50;;;-1.42;89.20
43147;BME280;28752;48.266;7.402;2023-03-04T05:09:51;100051.41;;;-1.26;89.71
43147;BME280;28752;48.266;7.402;2023-03-04T05:12:17;100026.38;;;-1.52;89.72
43147;BME280;28752;48.266;7.402;2023-03-04T05:14:42;100052.53;;;-1.33;89.90
43147;BME280;28752;48.266;7.402;2023-03-04T05:17:07;100051.72;;;-1.35;89.90
43147;BME280;28752;48.266;7.402;2023-03-04T05:19:33;100017.31;;;-1.66;90.70
43147;BME280;28752;48.266;7.402;2023-03-04T05:21:58;100027.28;;;-1.53;90.72
43147;BME280;28752;48.266;7.402;2023-03-04T05:24:23;100044.50;;;-1.51;90.89
43147;BME280;28752;48.266;7.402;2023-03-04T05:26:49;100031.88;;;-1.62;90.40
43147;BME280;28752;48.266;7.402;2023-03-04T05:29:14;100035.13;;;-1.55;90.39
43147;BME280;28752;48.266;7.402;2023-03-04T05:31:39;100052.94;;;-1.44;90.76
43147;BME280;28752;48.266;7.402;2023-03-04T05:34:05;100041.13;;;-1.53;90.24
43147;BME280;28752;48.266;7.402;2023-03-04T05:36:30;100049.69;;;-1.51;89.92
43147;BME280;28752;48.266;7.402;2023-03-04T05:38:56;100047.16;;;-1.52;90.13
43147;BME280;28752;48.266;7.402;2023-03-04T05:41:21;100051.63;;;-1.56;90.37
43147;BME280;28752;48.266;7.402;2023-03-04T05:43:48;100046.38;;;-1.54;90.49
43147;BME280;28752;48.266;7.402;2023-03-04T05:46:16;100057.84;;;-1.62;90.62
43147;BME280;28752;48.266;7.402;2023-03-04T05:48:42;100053.34;;;-1.56;90.28
43147;BME280;28752;48.266;7.402;2023-03-04T05:51:07;100056.75;;;-1.54;90.38
43147;BME280;28752;48.266;7.402;2023-03-04T05:53:33;100042.44;;;-1.66;90.41
43147;BME280;28752;48.266;7.402;2023-03-04T05:56:06;100058.53;;;-1.56;90.49
43147;BME280;28752;48.266;7.402;2023-03-04T05:58:32;100028.03;;;-1.75;90.11
43147;BME280;28752;48.266;7.402;2023-03-04T06:01:01;100045.75;;;-1.63;89.80
43147;BME280;28752;48.266;7.402;2023-03-04T06:03:27;100058.63;;;-1.59;89.68
43147;BME280;28752;48.266;7.402;2023-03-04T06:05:52;100058.75;;;-1.63;90.14
43147;BME280;28752;48.266;7.402;2023-03-04T06:08:18;100056.16;;;-1.63;90.21
43147;BME280;28752;48.266;7.402;2023-03-04T06:10:43;100063.84;;;-1.59;90.18
43147;BME280;28752;48.266;7.402;2023-03-04T06:13:09;100056.97;;;-1.61;90.17
43147;BME280;28752;48.266;7.402;2023-03-04T06:15:35;100065.50;;;-1.57;90.09
43147;BME280;28752;48.266;7.402;2023-03-04T06:18:00;100058.63;;;-1.59;90.60
43147;BME280;28752;48.266;7.402;2023-03-04T06:20:26;100067.19;;;-1.56;90.39
43147;BME280;28752;48.266;7.402;2023-03-04T06:22:51;100066.75;;;-1.44;90.00
43147;BME280;28752;48.266;7.402;2023-03-04T06:25:16;100085.00;;;-1.20;89.72
43147;BME280;28752;48.266;7.402;2023-03-04T06:27:42;100080.41;;;-1.13;89.21
43147;BME280;28752;48.266;7.402;2023-03-04T06:30:08;100052.25;;;-1.02;88.56
43147;BME280;28752;48.266;7.402;2023-03-04T06:32:33;100067.31;;;-0.64;87.06
43147;BME280;28752;48.266;7.402;2023-03-04T06:34:59;100069.22;;;-0.24;84.82
43147;BME280;28752;48.266;7.402;2023-03-04T06:37:24;100057.41;;;-0.10;83.34
43147;BME280;28752;48.266;7.402;2023-03-04T06:39:49;100091.63;;;0.23;81.66
43147;BME280;28752;48.266;7.402;2023-03-04T06:42:15;100073.81;;;0.33;80.08
43147;BME280;28752;48.266;7.402;2023-03-04T06:44:40;100090.59;;;0.87;78.46
43147;BME280;28752;48.266;7.402;2023-03-04T06:47:06;100094.16;;;1.24;76.64
43147;BME280;28752;48.266;7.402;2023-03-04T06:49:32;100103.91;;;1.40;75.40
43147;BME280;28752;48.266;7.402;2023-03-04T06:51:57;100099.66;;;1.56;74.51
43147;BME280;28752;48.266;7.402;2023-03-04T06:54:23;100098.03;;;1.54;74.70
43147;BME280;28752;48.266;7.402;2023-03-04T06:56:48;100081.84;;;1.65;75.19
43147;BME280;28752;48.266;7.402;2023-03-04T06:59:14;100108.13;;;1.98;74.77
43147;BME280;28752;48.266;7.402;2023-03-04T07:01:39;100105.59;;;2.14;74.05
43147;BME280;28752;48.266;7.402;2023-03-04T07:04:04;100086.78;;;2.25;72.96
43147;BME280;28752;48.266;7.402;2023-03-04T07:06:30;100090.22;;;2.43;72.23
43147;BME280;28752;48.266;7.402;2023-03-04T07:08:56;100107.44;;;2.64;72.06
43147;BME280;28752;48.266;7.402;2023-03-04T07:11:22;100095.03;;;2.86;71.33
43147;BME280;28752;48.266;7.402;2023-03-04T07:13:48;100108.88;;;2.88;70.76
43147;BME280;28752;48.266;7.402;2023-03-04T07:16:15;100114.59;;;3.28;69.41
43147;BME280;28752;48.266;7.402;2023-03-04T07:18:42;100112.25;;;3.39;69.00
43147;BME280;28752;48.266;7.402;2023-03-04T07:21:08;100116.66;;;3.54;69.08
43147;BME280;28752;48.266;7.402;2023-03-04T07:23:34;100118.25;;;3.73;68.19
43147;BME280;28752;48.266;7.402;2023-03-04T07:26:00;100120.88;;;3.73;68.17
43147;BME280;28752;48.266;7.402;2023-03-04T07:28:26;100125.88;;;3.62;68.05
43147;BME280;28752;48.266;7.402;2023-03-04T07:30:51;100110.38;;;3.41;68.80
43147;BME280;28752;48.266;7.402;2023-03-04T07:33:16;100126.88;;;3.10;70.18
43147;BME280;28752;48.266;7.402;2023-03-04T07:35:42;100127.66;;;3.12;70.45
43147;BME280;28752;48.266;7.402;2023-03-04T07:38:08;100132.19;;;3.08;71.13
43147;BME280;28752;48.266;7.402;2023-03-04T07:40:33;100138.41;;;2.90;71.54
43147;BME280;28752;48.266;7.402;2023-03-04T07:42:59;100133.81;;;3.11;71.55
43147;BME280;28752;48.266;7.402;2023-03-04T07:45:24;100115.00;;;3.04;71.74
43147;BME280;28752;48.266;7.402;2023-03-04T07:47:49;100133.88;;;2.76;72.55
43147;BME280;28752;48.266;7.402;2023-03-04T07:50:16;100121.72;;;2.75;72.74
43147;BME280;28752;48.266;7.402;2023-03-04T07:52:44;100141.25;;;3.02;72.43
43147;BME280;28752;48.266;7.402;2023-03-04T07:55:11;100143.53;;;3.09;71.89
43147;BME280;28752;48.266;7.402;2023-03-04T07:57:38;100141.59;;;3.12;71.79
43147;BME280;28752;48.266;7.402;2023-03-04T08:00:05;100142.59;;;3.10;71.62
43147;BME280;28752;48.266;7.402;2023-03-04T08:02:30;100137.28;;;3.11;71.67
43147;BME280;28752;48.266;7.402;2023-03-04T08:04:55;100131.13;;;3.12;71.59
43147;BME280;28752;48.266;7.402;2023-03-04T08:07:21;100141.81;;;3.08;71.61
43147;BME280;28752;48.266;7.402;2023-03-04T08:09:47;100143.22;;;3.31;71.60
43147;BME280;28752;48.266;7.402;2023-03-04T08:12:12;100149.91;;;3.36;71.35
43147;BME280;28752;48.266;7.402;2023-03-04T08:14:37;100147.66;;;3.46;71.22
43147;BME280;28752;48.266;7.402;2023-03-04T08:17:03;100146.97;;;3.43;71.24
43147;BME280;28752;48.266;7.402;2023-03-04T08:19:28;100128.81;;;3.40;71.39
43147;BME280;28752;48.266;7.402;2023-03-04T08:21:54;100132.03;;;3.61;71.10
43147;BME280;28752;48.266;7.402;2023-03-04T08:24:19;100142.81;;;3.70;70.99
43147;BME280;28752;48.266;7.402;2023-03-04T08:26:46;100141.31;;;3.66;71.08
43147;BME280;28752;48.266;7.402;2023-03-04T08:29:16;100142.41;;;3.46;71.61
43147;BME280;28752;48.266;7.402;2023-03-04T08:31:42;100139.78;;;3.62;71.84
43147;BME280;28752;48.266;7.402;2023-03-04T08:34:08;100130.00;;;3.66;71.52
43147;BME280;28752;48.266;7.402;2023-03-04T08:36:34;100128.63;;;3.74;71.27
43147;BME280;28752;48.266;7.402;2023-03-04T08:39:01;100142.81;;;3.70;71.67
43147;BME280;28752;48.266;7.402;2023-03-04T08:41:26;100126.97;;;3.42;72.03
43147;BME280;28752;48.266;7.402;2023-03-04T08:43:52;100142.81;;;3.38;71.60
43147;BME280;28752;48.266;7.402;2023-03-04T08:46:17;100144.72;;;3.52;72.07
43147;BME280;28752;48.266;7.402;2023-03-04T08:48:42;100150.59;;;3.56;71.92
43147;BME280;28752;48.266;7.402;2023-03-04T08:51:10;100152.72;;;3.65;71.81
43147;BME280;28752;48.266;7.402;2023-03-04T08:53:37;100152.66;;;3.51;71.78
43147;BME280;28752;48.266;7.402;2023-03-04T08:56:03;100161.03;;;3.73;71.66
43147;BME280;28752;48.266;7.402;2023-03-04T08:58:28;100164.72;;;3.69;71.18
43147;BME280;28752;48.266;7.402;2023-03-04T09:00:54;100147.25;;;3.54;70.81
43147;BME280;28752;48.266;7.402;2023-03-04T09:03:19;100144.00;;;3.49;71.35
43147;BME280;28752;48.266;7.402;2023-03-04T09:05:46;100167.94;;;3.59;71.51
43147;BME280;28752;48.266;7.402;2023-03-04T09:08:13;100160.78;;;3.78;72.13
43147;BME280;28752;48.266;7.402;2023-03-04T09:10:39;100156.88;;;3.69;71.28
43147;BME280;28752;48.266;7.402;2023-03-04T09:13:04;100145.63;;;3.51;71.44
43147;BME280;28752;48.266;7.402;2023-03-04T09:15:31;100163.44;;;3.45;72.19
43147;BME280;28752;48.266;7.402;2023-03-04T09:18:01;100151.72;;;3.68;71.55
43147;BME280;28752;48.266;7.402;2023-03-04T09:20:27;100147.91;;;3.58;71.68
43147;BME280;28752;48.266;7.402;2023-03-04T09:22:52;100162.13;;;3.69;71.66
43147;BME280;28752;48.266;7.402;2023-03-04T09:25:17;100162.19;;;3.68;71.91
43147;BME280;28752;48.266;7.402;2023-03-04T09:27:43;100130.75;;;3.52;71.33
43147;BME280;28752;48.266;7.402;2023-03-04T09:30:09;100148.41;;;3.64;71.88
43147;BME280;28752;48.266;7.402;2023-03-04T09:32:34;100146.22;;;3.88;71.74
43147;BME280;28752;48.266;7.402;2023-03-04T09:35:00;100146.91;;;3.76;71.27
43147;BME280;28752;48.266;7.402;2023-03-04T09:37:25;100153.97;;;3.90;70.76
43147;BME280;28752;48.266;7.402;2023-03-04T09:39:50;100147.81;;;3.91;71.29
43147;BME280;28752;48.266;7.402;2023-03-04T09:42:29;100155.84;;;3.88;70.63
43147;BME280;28752;48.266;7.402;2023-03-04T09:44:58;100151.81;;;3.66;71.17
43147;BME280;28752;48.266;7.402;2023-03-04T09:47:23;100150.25;;;3.94;71.40
43147;BME280;28752;48.266;7.402;2023-03-04T09:49:55;100142.31;;;4.12;70.56
43147;BME280;28752;48.266;7.402;2023-03-04T09:52:41;100145.72;;;4.28;70.42
43147;BME280;28752;48.266;7.402;2023-03-04T09:55:30;100151.38;;;4.36;71.37
43147;BME280;28752;48.266;7.402;2023-03-04T09:58:06;100150.69;;;4.63;69.39
43147;BME280;28752;48.266;7.402;2023-03-04T10:03:05;100149.22;;;4.29;70.33
43147;BME280;28752;48.266;7.402;2023-03-04T10:10:45;100156.44;;;4.09;70.72
43147;BME280;28752;48.266;7.402;2023-03-04T10:13:17;100134.19;;;4.16;69.56
43147;BME280;28752;48.266;7.402;2023-03-04T10:15:45;100146.69;;;4.27;69.38
43147;BME280;28752;48.266;7.402;2023-03-04T10:18:18;100147.59;;;4.26;68.84
43147;BME280;28752;48.266;7.402;2023-03-04T10:20:57;100155.34;;;4.43;69.22
43147;BME280;28752;48.266;7.402;2023-03-04T10:23:27;100157.19;;;4.41;69.17
43147;BME280;28752;48.266;7.402;2023-03-04T10:25:53;100150.28;;;4.40;69.18
43147;BME280;28752;48.266;7.402;2023-03-04T10:28:27;100151.69;;;4.46;69.33
43147;BME280;28752;48.266;7.402;2023-03-04T10:33:56;100150.22;;;4.26;69.95
43147;BME280;28752;48.266;7.402;2023-03-04T10:38:46;100143.28;;;4.55;69.38
43147;BME280;28752;48.266;7.402;2023-03-04T10:41:15;100123.81;;;4.45;69.40
43147;BME280;28752;48.266;7.402;2023-03-04T10:43:41;100142.97;;;4.90;68.33
43147;BME280;28752;48.266;7.402;2023-03-04T10:46:11;100148.78;;;4.81;66.93
43147;BME280;28752;48.266;7.402;2023-03-04T10:48:39;100151.56;;;4.78;67.31
43147;BME280;28752;48.266;7.402;2023-03-04T10:51:20;100131.94;;;4.40;68.50
43147;BME280;28752;48.266;7.402;2023-03-04T10:54:32;100137.34;;;4.37;69.51
43147;BME280;28752;48.266;7.402;2023-03-04T10:57:03;100137.47;;;4.50;69.33
43147;BME280;28752;48.266;7.402;2023-03-04T11:02:26;100126.66;;;4.85;67.16
43147;BME280;28752;48.266;7.402;2023-03-04T11:07:43;100131.25;;;4.96;67.77
43147;BME280;28752;48.266;7.402;2023-03-04T11:10:21;100127.97;;;4.78;67.73
43147;BME280;28752;48.266;7.402;2023-03-04T11:13:02;100130.88;;;4.73;67.95
43147;BME280;28752;48.266;7.402;2023-03-04T11:21:05;100122.06;;;4.89;67.05
43147;BME280;28752;48.266;7.402;2023-03-04T11:26:23;100120.59;;;4.85;66.16
43147;BME280;28752;48.266;7.402;2023-03-04T11:29:19;100113.81;;;4.95;66.47
43147;BME280;28752;48.266;7.402;2023-03-04T11:40:17;100107.84;;;5.07;65.90
43147;BME280;28752;48.266;7.402;2023-03-04T11:43:31;100101.47;;;4.97;65.83
43147;BME280;28752;48.266;7.402;2023-03-04T11:46:08;100098.47;;;5.03;66.82
43147;BME280;28752;48.266;7.402;2023-03-04T11:57:05;100072.19;;;5.32;65.26
43147;BME280;28752;48.266;7.402;2023-03-04T12:05:45;100064.25;;;5.05;65.21
43147;BME280;28752;48.266;7.402;2023-03-04T12:10:51;100057.03;;;5.08;65.79
43147;BME280;28752;48.266;7.402;2023-03-04T12:27:31;100035.25;;;5.62;64.12
43147;BME280;28752;48.266;7.402;2023-03-04T12:43:40;100015.44;;;5.29;64.99
43147;BME280;28752;48.266;7.402;2023-03-04T12:46:26;100008.13;;;5.34;64.89
43147;BME280;28752;48.266;7.402;2023-03-04T12:49:14;100005.03;;;5.28;64.90
43147;BME280;28752;48.266;7.402;2023-03-04T12:56:49;99993.56;;;5.43;64.64
43147;BME280;28752;48.266;7.402;2023-03-04T12:59:19;99982.06;;;5.31;65.65
43147;BME280;28752;48.266;7.402;2023-03-04T13:01:58;99993.22;;;5.62;65.10
43147;BME280;28752;48.266;7.402;2023-03-04T13:04:33;100001.53;;;5.42;64.78
43147;BME280;28752;48.266;7.402;2023-03-04T13:07:12;100002.22;;;5.31;65.77
43147;BME280;28752;48.266;7.402;2023-03-04T13:09:54;99972.47;;;5.03;65.76
43147;BME280;28752;48.266;7.402;2023-03-04T13:12:23;99995.75;;;5.22;65.83
43147;BME280;28752;48.266;7.402;2023-03-04T13:17:39;99992.22;;;5.50;65.39
43147;BME280;28752;48.266;7.402;2023-03-04T13:23:02;99988.47;;;5.27;65.67
43147;BME280;28752;48.266;7.402;2023-03-04T13:25:49;99992.38;;;5.34;65.42
43147;BME280;28752;48.266;7.402;2023-03-04T13:29:08;99976.63;;;5.34;65.08
43147;BME280;28752;48.266;7.402;2023-03-04T13:31:56;99989.00;;;5.32;64.94
43147;BME280;28752;48.266;7.402;2023-03-04T13:34:51;99970.19;;;5.11;65.28
43147;BME280;28752;48.266;7.402;2023-03-04T13:37:31;99953.97;;;5.19;65.38
43147;BME280;28752;48.266;7.402;2023-03-04T13:42:49;99973.59;;;4.99;65.61
43147;BME280;28752;48.266;7.402;2023-03-04T13:47:58;99960.47;;;5.13;65.42
43147;BME280;28752;48.266;7.402;2023-03-04T13:50:33;99945.44;;;5.15;65.26
43147;BME280;28752;48.266;7.402;2023-03-04T13:56:11;99969.06;;;5.15;65.25
43147;BME280;28752;48.266;7.402;2023-03-04T13:58:43;99965.81;;;5.12;65.52
43147;BME280;28752;48.266;7.402;2023-03-04T14:01:25;99961.88;;;5.05;64.92
43147;BME280;28752;48.266;7.402;2023-03-04T14:03:51;99955.34;;;5.25;65.03
43147;BME280;28752;48.266;7.402;2023-03-04T14:06:40;99974.72;;;5.37;65.00
43147;BME280;28752;48.266;7.402;2023-03-04T14:09:12;99948.13;;;5.28;64.24
43147;BME280;28752;48.266;7.402;2023-03-04T14:11:39;99935.69;;;5.18;63.57
43147;BME280;28752;48.266;7.402;2023-03-04T14:14:13;99946.88;;;5.34;64.20
43147;BME280;28752;48.266;7.402;2023-03-04T14:16:49;99957.53;;;5.45;63.64
43147;BME280;28752;48.266;7.402;2023-03-04T14:19:25;99947.97;;;5.44;63.17
43147;BME280;28752;48.266;7.402;2023-03-04T14:21:51;99953.75;;;5.49;63.92
43147;BME280;28752;48.266;7.402;2023-03-04T14:24:19;99951.06;;;5.64;63.05
43147;BME280;28752;48.266;7.402;2023-03-04T14:26:45;99946.97;;;5.60;62.65
43147;BME280;28752;48.266;7.402;2023-03-04T14:29:40;99942.81;;;5.43;62.04
43147;BME280;28752;48.266;7.402;2023-03-04T14:32:06;99938.88;;;5.63;61.82
43147;BME280;28752;48.266;7.402;2023-03-04T14:34:33;99933.97;;;5.71;61.68
43147;BME280;28752;48.266;7.402;2023-03-04T14:37:01;99916.41;;;5.59;61.32
43147;BME280;28752;48.266;7.402;2023-03-04T14:39:35;99934.03;;;5.57;60.92
43147;BME280;28752;48.266;7.402;2023-03-04T14:42:09;99930.06;;;5.64;61.21
43147;BME280;28752;48.266;7.402;2023-03-04T14:44:40;99931.53;;;5.68;60.96
43147;BME280;28752;48.266;7.402;2023-03-04T14:49:54;99930.00;;;5.51;61.07
43147;BME280;28752;48.266;7.402;2023-03-04T14:52:40;99933.50;;;5.51;61.70
43147;BME280;28752;48.266;7.402;2023-03-04T14:57:38;99928.16;;;5.66;61.51